sensor_id;sensor_type;location;lat;lon;timestamp;P1;durP1;ratioP1;P2;durP2;ratioP2
54881;SDS011;40775;51.448;4.742;2023-11-22T00:02:23;4.75;;;2.28;;
54881;SDS011;40775;51.448;4.742;2023-11-22T00:04:55;5.10;;;2.28;;
54881;SDS011;40775;51.448;4.742;2023-11-22T00:07:22;4.85;;;2.10;;
54881;SDS011;40775;51.448;4.742;2023-11-22T00:09:49;4.32;;;2.25;;
54881;SDS011;40775;51.448;4.742;2023-11-22T00:12:16;4.13;;;2.00;;
54881;SDS011;40775;51.448;4.742;2023-11-22T00:14:43;5.97;;;2.70;;
54881;SDS011;40775;51.448;4.742;2023-11-22T00:17:10;4.82;;;2.05;;
54881;SDS011;40775;51.448;4.742;2023-11-22T00:19:38;6.20;;;2.15;;
54881;SDS011;40775;51.448;4.742;2023-11-22T00:22:06;4.50;;;2.15;;
54881;SDS011;40775;51.448;4.742;2023-11-22T00:24:40;3.67;;;1.83;;
54881;SDS011;40775;51.448;4.742;2023-11-22T00:27:07;4.18;;;1.83;;
54881;SDS011;40775;51.448;4.742;2023-11-22T00:29:34;5.50;;;2.50;;
54881;SDS011;40775;51.448;4.742;2023-11-22T00:32:01;4.63;;;2.22;;
54881;SDS011;40775;51.448;4.742;2023-11-22T00:34:28;3.60;;;1.80;;
54881;SDS011;40775;51.448;4.742;2023-11-22T00:36:55;4.38;;;1.83;;
54881;SDS011;40775;51.448;4.742;2023-11-22T00:39:22;3.72;;;1.85;;
54881;SDS011;40775;51.448;4.742;2023-11-22T00:41:49;2.92;;;1.50;;
54881;SDS011;40775;51.448;4.742;2023-11-22T00:44:16;4.78;;;1.50;;
54881;SDS011;40775;51.448;4.742;2023-11-22T00:46:44;4.20;;;1.90;;
54881;SDS011;40775;51.448;4.742;2023-11-22T00:49:12;5.07;;;2.08;;
54881;SDS011;40775;51.448;4.742;2023-11-22T00:51:39;3.47;;;1.92;;
54881;SDS011;40775;51.448;4.742;2023-11-22T00:54:06;5.32;;;2.15;;
54881;SDS011;40775;51.448;4.742;2023-11-22T00:56:33;2.83;;;1.70;;
54881;SDS011;40775;51.448;4.742;2023-11-22T00:59:00;4.15;;;1.75;;
54881;SDS011;40775;51.448;4.742;2023-11-22T01:01:30;5.07;;;2.30;;
54881;SDS011;40775;51.448;4.742;2023-11-22T01:03:58;4.88;;;2.00;;
54881;SDS011;40775;51.448;4.742;2023-11-22T01:06:25;3.83;;;1.88;;
54881;SDS011;40775;51.448;4.742;2023-11-22T01:08:53;3.10;;;1.75;;
54881;SDS011;40775;51.448;4.742;2023-11-22T01:11:20;6.07;;;2.05;;
54881;SDS011;40775;51.448;4.742;2023-11-22T01:13:47;4.53;;;1.75;;
54881;SDS011;40775;51.448;4.742;2023-11-22T01:16:14;4.50;;;2.20;;
54881;SDS011;40775;51.448;4.742;2023-11-22T01:18:42;5.93;;;2.53;;
54881;SDS011;40775;51.448;4.742;2023-11-22T01:21:12;4.10;;;1.92;;
54881;SDS011;40775;51.448;4.742;2023-11-22T01:23:39;4.20;;;2.03;;
54881;SDS011;40775;51.448;4.742;2023-11-22T01:26:05;2.88;;;1.60;;
54881;SDS011;40775;51.448;4.742;2023-11-22T01:28:32;3.70;;;2.15;;
54881;SDS011;40775;51.448;4.742;2023-11-22T01:31:00;3.75;;;2.13;;
54881;SDS011;40775;51.448;4.742;2023-11-22T01:33:30;4.45;;;1.92;;
54881;SDS011;40775;51.448;4.742;2023-11-22T01:35:58;4.63;;;2.17;;
54881;SDS011;40775;51.448;4.742;2023-11-22T01:38:25;3.35;;;1.85;;
54881;SDS011;40775;51.448;4.742;2023-11-22T01:40:52;4.00;;;1.80;;
54881;SDS011;40775;51.448;4.742;2023-11-22T01:43:20;3.53;;;1.90;;
54881;SDS011;40775;51.448;4.742;2023-11-22T01:45:50;4.53;;;2.03;;
54881;SDS011;40775;51.448;4.742;2023-11-22T01:48:17;4.03;;;2.05;;
54881;SDS011;40775;51.448;4.742;2023-11-22T01:50:44;5.50;;;2.47;;
54881;SDS011;40775;51.448;4.742;2023-11-22T01:53:12;4.75;;;1.98;;
54881;SDS011;40775;51.448;4.742;2023-11-22T01:55:42;4.90;;;1.70;;
54881;SDS011;40775;51.448;4.742;2023-11-22T01:58:11;4.25;;;2.13;;
54881;SDS011;40775;51.448;4.742;2023-11-22T02:00:43;4.45;;;2.25;;
54881;SDS011;40775;51.448;4.742;2023-11-22T02:03:18;3.55;;;1.85;;
54881;SDS011;40775;51.448;4.742;2023-11-22T02:05:45;4.47;;;1.95;;
54881;SDS011;40775;51.448;4.742;2023-11-22T02:08:12;3.80;;;2.00;;
54881;SDS011;40775;51.448;4.742;2023-11-22T02:10:40;3.70;;;1.83;;
54881;SDS011;40775;51.448;4.742;2023-11-22T02:13:08;3.38;;;1.80;;
54881;SDS011;40775;51.448;4.742;2023-11-22T02:15:35;4.93;;;1.80;;
54881;SDS011;40775;51.448;4.742;2023-11-22T02:18:03;4.38;;;2.00;;
54881;SDS011;40775;51.448;4.742;2023-11-22T02:20:38;3.80;;;1.88;;
54881;SDS011;40775;51.448;4.742;2023-11-22T02:23:08;3.33;;;1.83;;
54881;SDS011;40775;51.448;4.742;2023-11-22T02:25:36;3.63;;;1.75;;
54881;SDS011;40775;51.448;4.742;2023-11-22T02:28:04;4.18;;;2.00;;
54881;SDS011;40775;51.448;4.742;2023-11-22T02:30:31;3.67;;;1.80;;
54881;SDS011;40775;51.448;4.742;2023-11-22T02:32:58;2.97;;;1.63;;
54881;SDS011;40775;51.448;4.742;2023-11-22T02:35:25;3.92;;;1.80;;
54881;SDS011;40775;51.448;4.742;2023-11-22T02:37:56;3.22;;;1.58;;
54881;SDS011;40775;51.448;4.742;2023-11-22T02:40:23;5.00;;;1.83;;
54881;SDS011;40775;51.448;4.742;2023-11-22T02:42:51;3.00;;;1.60;;
54881;SDS011;40775;51.448;4.742;2023-11-22T02:45:21;2.95;;;1.60;;
54881;SDS011;40775;51.448;4.742;2023-11-22T02:47:52;3.28;;;2.00;;
54881;SDS011;40775;51.448;4.742;2023-11-22T02:50:20;3.25;;;1.60;;
54881;SDS011;40775;51.448;4.742;2023-11-22T02:52:47;2.88;;;1.63;;
54881;SDS011;40775;51.448;4.742;2023-11-22T02:55:14;3.55;;;1.50;;
54881;SDS011;40775;51.448;4.742;2023-11-22T02:57:41;4.18;;;1.90;;
54881;SDS011;40775;51.448;4.742;2023-11-22T03:00:09;4.88;;;2.10;;
54881;SDS011;40775;51.448;4.742;2023-11-22T03:02:39;4.13;;;2.03;;
54881;SDS011;40775;51.448;4.742;2023-11-22T03:05:11;5.40;;;2.20;;
54881;SDS011;40775;51.448;4.742;2023-11-22T03:07:43;4.05;;;1.90;;
54881;SDS011;40775;51.448;4.742;2023-11-22T03:10:10;8.93;;;2.20;;
54881;SDS011;40775;51.448;4.742;2023-11-22T03:12:37;4.00;;;1.75;;
54881;SDS011;40775;51.448;4.742;2023-11-22T03:15:04;4.38;;;2.03;;
54881;SDS011;40775;51.448;4.742;2023-11-22T03:17:32;4.07;;;2.05;;
54881;SDS011;40775;51.448;4.742;2023-11-22T03:20:01;4.00;;;1.90;;
54881;SDS011;40775;51.448;4.742;2023-11-22T03:22:29;3.38;;;1.80;;
54881;SDS011;40775;51.448;4.742;2023-11-22T03:24:57;5.13;;;2.33;;
54881;SDS011;40775;51.448;4.742;2023-11-22T03:27:24;3.17;;;1.92;;
54881;SDS011;40775;51.448;4.742;2023-11-22T03:29:52;3.38;;;1.63;;
54881;SDS011;40775;51.448;4.742;2023-11-22T03:32:19;5.15;;;2.50;;
54881;SDS011;40775;51.448;4.742;2023-11-22T03:34:46;4.00;;;2.08;;
54881;SDS011;40775;51.448;4.742;2023-11-22T03:37:13;4.18;;;2.10;;
54881;SDS011;40775;51.448;4.742;2023-11-22T03:39:40;4.38;;;2.00;;
54881;SDS011;40775;51.448;4.742;2023-11-22T03:42:14;4.28;;;1.92;;
54881;SDS011;40775;51.448;4.742;2023-11-22T03:44:43;3.88;;;1.63;;
54881;SDS011;40775;51.448;4.742;2023-11-22T03:47:10;3.17;;;1.67;;
54881;SDS011;40775;51.448;4.742;2023-11-22T03:49:40;5.63;;;2.58;;
54881;SDS011;40775;51.448;4.742;2023-11-22T03:52:10;3.22;;;1.73;;
54881;SDS011;40775;51.448;4.742;2023-11-22T03:54:38;3.88;;;1.77;;
54881;SDS011;40775;51.448;4.742;2023-11-22T03:57:05;3.47;;;1.42;;
54881;SDS011;40775;51.448;4.742;2023-11-22T03:59:33;5.05;;;2.10;;
54881;SDS011;40775;51.448;4.742;2023-11-22T04:02:02;3.88;;;2.10;;
54881;SDS011;40775;51.448;4.742;2023-11-22T04:04:29;4.88;;;1.77;;
54881;SDS011;40775;51.448;4.742;2023-11-22T04:06:56;4.25;;;2.08;;
54881;SDS011;40775;51.448;4.742;2023-11-22T04:09:23;3.20;;;1.90;;
54881;SDS011;40775;51.448;4.742;2023-11-22T04:11:50;3.88;;;1.70;;
54881;SDS011;40775;51.448;4.742;2023-11-22T04:14:18;4.93;;;2.03;;
54881;SDS011;40775;51.448;4.742;2023-11-22T04:16:47;3.67;;;1.85;;
54881;SDS011;40775;51.448;4.742;2023-11-22T04:19:14;3.67;;;1.73;;
54881;SDS011;40775;51.448;4.742;2023-11-22T04:21:42;4.05;;;1.77;;
54881;SDS011;40775;51.448;4.742;2023-11-22T04:24:09;2.88;;;1.50;;
54881;SDS011;40775;51.448;4.742;2023-11-22T04:26:36;4.70;;;2.03;;
54881;SDS011;40775;51.448;4.742;2023-11-22T04:29:03;4.65;;;1.77;;
54881;SDS011;40775;51.448;4.742;2023-11-22T04:31:30;4.55;;;1.85;;
54881;SDS011;40775;51.448;4.742;2023-11-22T04:33:57;4.18;;;1.85;;
54881;SDS011;40775;51.448;4.742;2023-11-22T04:36:26;2.83;;;1.55;;
54881;SDS011;40775;51.448;4.742;2023-11-22T04:38:53;2.88;;;1.45;;
54881;SDS011;40775;51.448;4.742;2023-11-22T04:41:20;4.15;;;1.52;;
54881;SDS011;40775;51.448;4.742;2023-11-22T04:43:49;3.83;;;1.65;;
54881;SDS011;40775;51.448;4.742;2023-11-22T04:46:16;2.85;;;1.63;;
54881;SDS011;40775;51.448;4.742;2023-11-22T04:48:42;2.90;;;1.58;;
54881;SDS011;40775;51.448;4.742;2023-11-22T04:51:11;2.50;;;1.10;;
54881;SDS011;40775;51.448;4.742;2023-11-22T04:53:38;3.17;;;1.83;;
54881;SDS011;40775;51.448;4.742;2023-11-22T04:56:05;2.80;;;1.65;;
54881;SDS011;40775;51.448;4.742;2023-11-22T04:58:33;2.92;;;1.30;;
54881;SDS011;40775;51.448;4.742;2023-11-22T05:01:00;3.72;;;1.63;;
54881;SDS011;40775;51.448;4.742;2023-11-22T05:03:28;3.80;;;1.88;;
54881;SDS011;40775;51.448;4.742;2023-11-22T05:05:55;3.63;;;1.80;;
54881;SDS011;40775;51.448;4.742;2023-11-22T05:08:22;3.05;;;1.45;;
54881;SDS011;40775;51.448;4.742;2023-11-22T05:10:49;4.15;;;1.83;;
54881;SDS011;40775;51.448;4.742;2023-11-22T05:13:19;3.40;;;1.77;;
54881;SDS011;40775;51.448;4.742;2023-11-22T05:15:46;3.97;;;1.30;;
54881;SDS011;40775;51.448;4.742;2023-11-22T05:18:13;7.13;;;1.80;;
54881;SDS011;40775;51.448;4.742;2023-11-22T05:20:40;2.42;;;1.35;;
54881;SDS011;40775;51.448;4.742;2023-11-22T05:23:08;3.08;;;1.38;;
54881;SDS011;40775;51.448;4.742;2023-11-22T05:25:35;2.95;;;1.67;;
54881;SDS011;40775;51.448;4.742;2023-11-22T05:28:02;3.70;;;1.70;;
54881;SDS011;40775;51.448;4.742;2023-11-22T05:30:30;3.60;;;1.77;;
54881;SDS011;40775;51.448;4.742;2023-11-22T05:32:57;4.40;;;2.20;;
54881;SDS011;40775;51.448;4.742;2023-11-22T05:35:24;2.72;;;1.52;;
54881;SDS011;40775;51.448;4.742;2023-11-22T05:37:51;3.25;;;1.60;;
54881;SDS011;40775;51.448;4.742;2023-11-22T05:40:18;4.15;;;2.03;;
54881;SDS011;40775;51.448;4.742;2023-11-22T05:42:45;3.75;;;1.98;;
54881;SDS011;40775;51.448;4.742;2023-11-22T05:45:12;4.85;;;1.98;;
54881;SDS011;40775;51.448;4.742;2023-11-22T05:47:39;3.50;;;1.75;;
54881;SDS011;40775;51.448;4.742;2023-11-22T05:50:07;3.65;;;1.73;;
54881;SDS011;40775;51.448;4.742;2023-11-22T05:52:35;5.05;;;2.10;;
54881;SDS011;40775;51.448;4.742;2023-11-22T05:55:02;5.20;;;2.13;;
54881;SDS011;40775;51.448;4.742;2023-11-22T05:57:32;3.55;;;1.73;;
54881;SDS011;40775;51.448;4.742;2023-11-22T05:59:59;3.78;;;1.60;;
54881;SDS011;40775;51.448;4.742;2023-11-22T06:02:26;2.97;;;1.75;;
54881;SDS011;40775;51.448;4.742;2023-11-22T06:04:53;6.15;;;1.55;;
54881;SDS011;40775;51.448;4.742;2023-11-22T06:07:20;3.40;;;1.75;;
54881;SDS011;40775;51.448;4.742;2023-11-22T06:09:47;3.28;;;1.75;;
54881;SDS011;40775;51.448;4.742;2023-11-22T06:12:15;4.55;;;1.70;;
54881;SDS011;40775;51.448;4.742;2023-11-22T06:14:41;3.65;;;1.75;;
54881;SDS011;40775;51.448;4.742;2023-11-22T06:17:09;3.15;;;1.60;;
54881;SDS011;40775;51.448;4.742;2023-11-22T06:19:35;4.97;;;1.60;;
54881;SDS011;40775;51.448;4.742;2023-11-22T06:22:03;3.08;;;1.50;;
54881;SDS011;40775;51.448;4.742;2023-11-22T06:24:30;3.53;;;1.65;;
54881;SDS011;40775;51.448;4.742;2023-11-22T06:26:59;2.72;;;1.45;;
54881;SDS011;40775;51.448;4.742;2023-11-22T06:29:26;2.75;;;1.58;;
54881;SDS011;40775;51.448;4.742;2023-11-22T06:31:53;2.72;;;1.23;;
54881;SDS011;40775;51.448;4.742;2023-11-22T06:34:20;3.05;;;1.77;;
54881;SDS011;40775;51.448;4.742;2023-11-22T06:36:47;3.15;;;1.63;;
54881;SDS011;40775;51.448;4.742;2023-11-22T06:39:14;4.00;;;1.80;;
54881;SDS011;40775;51.448;4.742;2023-11-22T06:41:41;2.90;;;1.52;;
54881;SDS011;40775;51.448;4.742;2023-11-22T06:44:08;3.22;;;1.55;;
54881;SDS011;40775;51.448;4.742;2023-11-22T06:46:36;10.27;;;5.78;;
54881;SDS011;40775;51.448;4.742;2023-11-22T06:49:03;6.45;;;3.45;;
54881;SDS011;40775;51.448;4.742;2023-11-22T06:51:31;2.75;;;1.23;;
54881;SDS011;40775;51.448;4.742;2023-11-22T06:53:58;2.75;;;1.20;;
54881;SDS011;40775;51.448;4.742;2023-11-22T06:56:27;3.08;;;1.33;;
54881;SDS011;40775;51.448;4.742;2023-11-22T06:58:55;3.03;;;1.02;;
54881;SDS011;40775;51.448;4.742;2023-11-22T07:01:23;3.25;;;1.10;;
54881;SDS011;40775;51.448;4.742;2023-11-22T07:03:53;2.28;;;1.00;;
54881;SDS011;40775;51.448;4.742;2023-11-22T07:06:21;1.55;;;0.70;;
54881;SDS011;40775;51.448;4.742;2023-11-22T07:08:48;2.17;;;0.70;;
54881;SDS011;40775;51.448;4.742;2023-11-22T07:11:22;1.08;;;0.60;;
54881;SDS011;40775;51.448;4.742;2023-11-22T07:13:51;1.17;;;0.57;;
54881;SDS011;40775;51.448;4.742;2023-11-22T07:16:18;1.00;;;0.60;;
54881;SDS011;40775;51.448;4.742;2023-11-22T07:18:46;1.83;;;0.85;;
54881;SDS011;40775;51.448;4.742;2023-11-22T07:21:16;1.42;;;0.73;;
54881;SDS011;40775;51.448;4.742;2023-11-22T07:23:43;1.33;;;0.65;;
54881;SDS011;40775;51.448;4.742;2023-11-22T07:26:11;1.08;;;0.60;;
54881;SDS011;40775;51.448;4.742;2023-11-22T07:28:40;1.33;;;0.80;;
54881;SDS011;40775;51.448;4.742;2023-11-22T07:31:08;1.80;;;0.77;;
54881;SDS011;40775;51.448;4.742;2023-11-22T07:33:35;1.42;;;0.65;;
54881;SDS011;40775;51.448;4.742;2023-11-22T07:36:02;1.50;;;0.70;;
54881;SDS011;40775;51.448;4.742;2023-11-22T07:38:29;1.45;;;0.93;;
54881;SDS011;40775;51.448;4.742;2023-11-22T07:40:58;2.28;;;0.70;;
54881;SDS011;40775;51.448;4.742;2023-11-22T07:43:25;1.52;;;0.77;;
54881;SDS011;40775;51.448;4.742;2023-11-22T07:45:52;1.45;;;0.82;;
54881;SDS011;40775;51.448;4.742;2023-11-22T07:48:19;0.98;;;0.63;;
54881;SDS011;40775;51.448;4.742;2023-11-22T07:50:46;1.70;;;0.80;;
54881;SDS011;40775;51.448;4.742;2023-11-22T07:53:15;2.63;;;1.02;;
54881;SDS011;40775;51.448;4.742;2023-11-22T07:55:44;2.00;;;0.75;;
54881;SDS011;40775;51.448;4.742;2023-11-22T07:58:11;0.98;;;0.43;;
54881;SDS011;40775;51.448;4.742;2023-11-22T08:00:38;1.70;;;0.65;;
54881;SDS011;40775;51.448;4.742;2023-11-22T08:03:08;2.67;;;1.08;;
54881;SDS011;40775;51.448;4.742;2023-11-22T08:05:36;1.35;;;0.70;;
54881;SDS011;40775;51.448;4.742;2023-11-22T08:08:07;3.00;;;1.08;;
54881;SDS011;40775;51.448;4.742;2023-11-22T08:10:35;3.40;;;0.90;;
54881;SDS011;40775;51.448;4.742;2023-11-22T08:13:02;1.90;;;0.93;;
54881;SDS011;40775;51.448;4.742;2023-11-22T08:15:30;0.90;;;0.50;;
54881;SDS011;40775;51.448;4.742;2023-11-22T08:18:00;2.05;;;0.88;;
54881;SDS011;40775;51.448;4.742;2023-11-22T08:20:27;1.85;;;0.60;;
54881;SDS011;40775;51.448;4.742;2023-11-22T08:22:54;1.58;;;0.88;;
54881;SDS011;40775;51.448;4.742;2023-11-22T08:25:21;2.28;;;1.00;;
54881;SDS011;40775;51.448;4.742;2023-11-22T08:27:48;1.08;;;0.70;;
54881;SDS011;40775;51.448;4.742;2023-11-22T08:30:15;2.08;;;1.08;;
54881;SDS011;40775;51.448;4.742;2023-11-22T08:32:44;0.90;;;0.70;;
54881;SDS011;40775;51.448;4.742;2023-11-22T08:35:21;2.33;;;1.13;;
54881;SDS011;40775;51.448;4.742;2023-11-22T08:37:49;2.50;;;1.00;;
54881;SDS011;40775;51.448;4.742;2023-11-22T08:40:17;2.10;;;0.77;;
54881;SDS011;40775;51.448;4.742;2023-11-22T08:42:47;1.88;;;0.88;;
54881;SDS011;40775;51.448;4.742;2023-11-22T08:45:14;2.63;;;1.02;;
54881;SDS011;40775;51.448;4.742;2023-11-22T08:47:42;1.20;;;0.75;;
54881;SDS011;40775;51.448;4.742;2023-11-22T08:50:09;2.65;;;1.10;;
54881;SDS011;40775;51.448;4.742;2023-11-22T08:52:39;2.08;;;0.70;;
54881;SDS011;40775;51.448;4.742;2023-11-22T08:55:08;1.50;;;0.70;;
54881;SDS011;40775;51.448;4.742;2023-11-22T08:57:36;1.70;;;0.80;;
54881;SDS011;40775;51.448;4.742;2023-11-22T09:00:04;2.78;;;0.95;;
54881;SDS011;40775;51.448;4.742;2023-11-22T09:02:36;1.17;;;0.73;;
54881;SDS011;40775;51.448;4.742;2023-11-22T09:05:04;2.33;;;0.82;;
54881;SDS011;40775;51.448;4.742;2023-11-22T09:07:36;1.17;;;0.70;;
54881;SDS011;40775;51.448;4.742;2023-11-22T09:10:05;2.05;;;1.10;;
54881;SDS011;40775;51.448;4.742;2023-11-22T09:12:37;2.38;;;1.13;;
54881;SDS011;40775;51.448;4.742;2023-11-22T09:15:07;1.85;;;0.90;;
54881;SDS011;40775;51.448;4.742;2023-11-22T09:17:39;1.92;;;0.85;;
54881;SDS011;40775;51.448;4.742;2023-11-22T09:20:11;2.40;;;1.00;;
54881;SDS011;40775;51.448;4.742;2023-11-22T09:22:48;1.67;;;1.08;;
54881;SDS011;40775;51.448;4.742;2023-11-22T09:25:18;2.25;;;0.80;;
54881;SDS011;40775;51.448;4.742;2023-11-22T09:27:54;1.67;;;0.70;;
54881;SDS011;40775;51.448;4.742;2023-11-22T09:30:26;1.48;;;0.60;;
54881;SDS011;40775;51.448;4.742;2023-11-22T09:33:06;2.10;;;1.02;;
54881;SDS011;40775;51.448;4.742;2023-11-22T09:35:43;1.10;;;0.70;;
54881;SDS011;40775;51.448;4.742;2023-11-22T09:38:12;2.03;;;0.93;;
54881;SDS011;40775;51.448;4.742;2023-11-22T09:43:13;0.93;;;0.47;;
54881;SDS011;40775;51.448;4.742;2023-11-22T09:45:44;1.97;;;0.73;;
54881;SDS011;40775;51.448;4.742;2023-11-22T09:50:49;1.58;;;0.80;;
54881;SDS011;40775;51.448;4.742;2023-11-22T09:53:30;1.42;;;0.60;;
54881;SDS011;40775;51.448;4.742;2023-11-22T09:56:01;1.17;;;0.80;;
54881;SDS011;40775;51.448;4.742;2023-11-22T09:58:30;3.10;;;1.10;;
54881;SDS011;40775;51.448;4.742;2023-11-22T10:01:00;1.65;;;0.93;;
54881;SDS011;40775;51.448;4.742;2023-11-22T10:03:29;1.33;;;0.60;;
54881;SDS011;40775;51.448;4.742;2023-11-22T10:05:57;1.55;;;0.90;;
54881;SDS011;40775;51.448;4.742;2023-11-22T10:08:25;2.22;;;1.17;;
54881;SDS011;40775;51.448;4.742;2023-11-22T10:10:57;3.15;;;1.10;;
54881;SDS011;40775;51.448;4.742;2023-11-22T10:13:24;1.83;;;1.00;;
54881;SDS011;40775;51.448;4.742;2023-11-22T10:15:53;1.40;;;0.88;;
54881;SDS011;40775;51.448;4.742;2023-11-22T10:18:20;1.63;;;0.90;;
54881;SDS011;40775;51.448;4.742;2023-11-22T10:20:48;3.20;;;1.10;;
54881;SDS011;40775;51.448;4.742;2023-11-22T10:23:17;2.35;;;1.15;;
54881;SDS011;40775;51.448;4.742;2023-11-22T10:25:54;2.28;;;1.13;;
54881;SDS011;40775;51.448;4.742;2023-11-22T10:28:22;4.30;;;1.58;;
54881;SDS011;40775;51.448;4.742;2023-11-22T10:30:54;2.95;;;1.10;;
54881;SDS011;40775;51.448;4.742;2023-11-22T10:33:21;2.78;;;1.35;;
54881;SDS011;40775;51.448;4.742;2023-11-22T10:35:50;3.70;;;1.45;;
54881;SDS011;40775;51.448;4.742;2023-11-22T10:38:19;2.72;;;1.30;;
54881;SDS011;40775;51.448;4.742;2023-11-22T10:40:47;3.15;;;1.42;;
54881;SDS011;40775;51.448;4.742;2023-11-22T10:43:15;4.00;;;1.33;;
54881;SDS011;40775;51.448;4.742;2023-11-22T10:45:43;3.85;;;1.40;;
54881;SDS011;40775;51.448;4.742;2023-11-22T10:48:15;2.05;;;1.30;;
54881;SDS011;40775;51.448;4.742;2023-11-22T10:50:43;3.83;;;1.65;;
54881;SDS011;40775;51.448;4.742;2023-11-22T10:53:11;2.88;;;1.17;;
54881;SDS011;40775;51.448;4.742;2023-11-22T10:55:46;3.70;;;1.27;;
54881;SDS011;40775;51.448;4.742;2023-11-22T10:58:15;2.92;;;1.38;;
54881;SDS011;40775;51.448;4.742;2023-11-22T11:00:43;3.95;;;1.20;;
54881;SDS011;40775;51.448;4.742;2023-11-22T11:03:17;3.42;;;1.17;;
54881;SDS011;40775;51.448;4.742;2023-11-22T11:05:49;2.30;;;1.02;;
54881;SDS011;40775;51.448;4.742;2023-11-22T11:08:27;3.30;;;1.60;;
54881;SDS011;40775;51.448;4.742;2023-11-22T11:10:55;2.38;;;1.35;;
54881;SDS011;40775;51.448;4.742;2023-11-22T11:13:24;3.55;;;1.00;;
54881;SDS011;40775;51.448;4.742;2023-11-22T11:15:53;2.03;;;1.08;;
54881;SDS011;40775;51.448;4.742;2023-11-22T11:18:22;2.30;;;1.30;;
54881;SDS011;40775;51.448;4.742;2023-11-22T11:20:51;3.08;;;1.40;;
54881;SDS011;40775;51.448;4.742;2023-11-22T11:23:20;2.90;;;0.95;;
54881;SDS011;40775;51.448;4.742;2023-11-22T11:25:55;2.28;;;1.08;;
54881;SDS011;40775;51.448;4.742;2023-11-22T11:28:23;3.38;;;1.48;;
54881;SDS011;40775;51.448;4.742;2023-11-22T11:30:54;3.30;;;1.70;;
54881;SDS011;40775;51.448;4.742;2023-11-22T11:33:26;3.40;;;1.58;;
54881;SDS011;40775;51.448;4.742;2023-11-22T11:36:29;3.15;;;1.10;;
54881;SDS011;40775;51.448;4.742;2023-11-22T11:38:59;2.88;;;1.48;;
54881;SDS011;40775;51.448;4.742;2023-11-22T11:41:32;3.42;;;1.60;;
54881;SDS011;40775;51.448;4.742;2023-11-22T11:44:01;3.20;;;1.30;;
54881;SDS011;40775;51.448;4.742;2023-11-22T11:46:29;2.50;;;1.45;;
54881;SDS011;40775;51.448;4.742;2023-11-22T11:48:57;2.90;;;1.48;;
54881;SDS011;40775;51.448;4.742;2023-11-22T11:51:27;3.28;;;1.20;;
54881;SDS011;40775;51.448;4.742;2023-11-22T11:53:55;4.03;;;1.60;;
54881;SDS011;40775;51.448;4.742;2023-11-22T11:56:23;2.20;;;1.08;;
54881;SDS011;40775;51.448;4.742;2023-11-22T11:58:53;2.45;;;1.23;;
54881;SDS011;40775;51.448;4.742;2023-11-22T12:01:29;2.50;;;1.23;;
54881;SDS011;40775;51.448;4.742;2023-11-22T12:04:02;2.42;;;1.38;;
54881;SDS011;40775;51.448;4.742;2023-11-22T12:06:30;3.50;;;1.33;;
54881;SDS011;40775;51.448;4.742;2023-11-22T12:09:00;2.95;;;1.67;;
54881;SDS011;40775;51.448;4.742;2023-11-22T12:11:27;2.38;;;1.10;;
54881;SDS011;40775;51.448;4.742;2023-11-22T12:13:56;3.63;;;1.20;;
54881;SDS011;40775;51.448;4.742;2023-11-22T12:16:25;1.88;;;1.10;;
54881;SDS011;40775;51.448;4.742;2023-11-22T12:18:54;2.67;;;1.55;;
54881;SDS011;40775;51.448;4.742;2023-11-22T12:21:21;3.58;;;1.40;;
54881;SDS011;40775;51.448;4.742;2023-11-22T12:23:49;3.38;;;1.40;;
54881;SDS011;40775;51.448;4.742;2023-11-22T12:26:19;1.25;;;0.80;;
54881;SDS011;40775;51.448;4.742;2023-11-22T12:28:47;3.58;;;1.30;;
54881;SDS011;40775;51.448;4.742;2023-11-22T12:31:29;2.88;;;1.45;;
54881;SDS011;40775;51.448;4.742;2023-11-22T12:34:02;4.03;;;1.58;;
54881;SDS011;40775;51.448;4.742;2023-11-22T12:36:30;2.38;;;1.40;;
54881;SDS011;40775;51.448;4.742;2023-11-22T12:38:57;3.65;;;1.50;;
54881;SDS011;40775;51.448;4.742;2023-11-22T12:41:28;2.30;;;1.15;;
54881;SDS011;40775;51.448;4.742;2023-11-22T12:44:06;3.15;;;1.67;;
54881;SDS011;40775;51.448;4.742;2023-11-22T12:46:47;2.60;;;1.38;;
54881;SDS011;40775;51.448;4.742;2023-11-22T12:49:26;2.30;;;1.23;;
54881;SDS011;40775;51.448;4.742;2023-11-22T12:51:54;2.63;;;1.35;;
54881;SDS011;40775;51.448;4.742;2023-11-22T12:54:25;2.58;;;1.08;;
54881;SDS011;40775;51.448;4.742;2023-11-22T12:56:53;3.58;;;1.70;;
54881;SDS011;40775;51.448;4.742;2023-11-22T12:59:25;4.10;;;1.80;;
54881;SDS011;40775;51.448;4.742;2023-11-22T13:01:54;2.15;;;1.20;;
54881;SDS011;40775;51.448;4.742;2023-11-22T13:04:22;3.80;;;1.48;;
54881;SDS011;40775;51.448;4.742;2023-11-22T13:06:49;2.80;;;1.33;;
54881;SDS011;40775;51.448;4.742;2023-11-22T13:09:17;4.03;;;2.08;;
54881;SDS011;40775;51.448;4.742;2023-11-22T13:11:44;3.92;;;1.90;;
54881;SDS011;40775;51.448;4.742;2023-11-22T13:14:12;3.15;;;1.38;;
54881;SDS011;40775;51.448;4.742;2023-11-22T13:16:43;3.10;;;1.40;;
54881;SDS011;40775;51.448;4.742;2023-11-22T13:19:11;3.55;;;1.77;;
54881;SDS011;40775;51.448;4.742;2023-11-22T13:21:38;3.10;;;1.50;;
54881;SDS011;40775;51.448;4.742;2023-11-22T13:24:07;4.65;;;1.80;;
54881;SDS011;40775;51.448;4.742;2023-11-22T13:26:35;3.47;;;1.40;;
54881;SDS011;40775;51.448;4.742;2023-11-22T13:29:03;3.28;;;1.77;;
54881;SDS011;40775;51.448;4.742;2023-11-22T13:31:30;4.18;;;1.65;;
54881;SDS011;40775;51.448;4.742;2023-11-22T13:33:57;2.85;;;1.65;;
54881;SDS011;40775;51.448;4.742;2023-11-22T13:36:24;4.43;;;2.15;;
54881;SDS011;40775;51.448;4.742;2023-11-22T13:38:51;3.38;;;1.60;;
54881;SDS011;40775;51.448;4.742;2023-11-22T13:41:18;3.13;;;1.35;;
54881;SDS011;40775;51.448;4.742;2023-11-22T13:43:46;3.63;;;1.75;;
54881;SDS011;40775;51.448;4.742;2023-11-22T13:46:14;2.80;;;1.60;;
54881;SDS011;40775;51.448;4.742;2023-11-22T13:48:43;1.65;;;1.00;;
54881;SDS011;40775;51.448;4.742;2023-11-22T13:51:10;3.50;;;1.63;;
54881;SDS011;40775;51.448;4.742;2023-11-22T13:53:37;3.50;;;1.90;;
54881;SDS011;40775;51.448;4.742;2023-11-22T13:56:09;3.78;;;1.67;;
54881;SDS011;40775;51.448;4.742;2023-11-22T13:58:39;3.58;;;1.52;;
54881;SDS011;40775;51.448;4.742;2023-11-22T14:01:06;2.92;;;1.55;;
54881;SDS011;40775;51.448;4.742;2023-11-22T14:03:38;2.58;;;1.40;;
54881;SDS011;40775;51.448;4.742;2023-11-22T14:06:05;2.72;;;1.35;;
54881;SDS011;40775;51.448;4.742;2023-11-22T14:08:33;2.80;;;1.25;;
54881;SDS011;40775;51.448;4.742;2023-11-22T14:11:00;4.55;;;1.60;;
54881;SDS011;40775;51.448;4.742;2023-11-22T14:13:27;2.80;;;1.10;;
54881;SDS011;40775;51.448;4.742;2023-11-22T14:15:54;3.17;;;1.60;;
54881;SDS011;40775;51.448;4.742;2023-11-22T14:18:22;4.28;;;1.83;;
54881;SDS011;40775;51.448;4.742;2023-11-22T14:20:49;2.25;;;1.23;;
54881;SDS011;40775;51.448;4.742;2023-11-22T14:23:16;4.60;;;2.13;;
54881;SDS011;40775;51.448;4.742;2023-11-22T14:25:44;4.10;;;1.80;;
54881;SDS011;40775;51.448;4.742;2023-11-22T14:28:11;2.30;;;1.55;;
54881;SDS011;40775;51.448;4.742;2023-11-22T14:30:40;4.10;;;1.70;;
54881;SDS011;40775;51.448;4.742;2023-11-22T14:33:07;3.45;;;1.70;;
54881;SDS011;40775;51.448;4.742;2023-11-22T14:35:36;2.97;;;1.67;;
54881;SDS011;40775;51.448;4.742;2023-11-22T14:38:03;4.15;;;1.70;;
54881;SDS011;40775;51.448;4.742;2023-11-22T14:40:32;4.30;;;1.95;;
54881;SDS011;40775;51.448;4.742;2023-11-22T14:43:01;3.50;;;1.55;;
54881;SDS011;40775;51.448;4.742;2023-11-22T14:45:29;5.93;;;2.28;;
54881;SDS011;40775;51.448;4.742;2023-11-22T14:48:00;2.75;;;1.55;;
54881;SDS011;40775;51.448;4.742;2023-11-22T14:50:28;4.07;;;2.03;;
54881;SDS011;40775;51.448;4.742;2023-11-22T14:52:57;3.08;;;1.58;;
54881;SDS011;40775;51.448;4.742;2023-11-22T14:55:24;1.83;;;1.20;;
54881;SDS011;40775;51.448;4.742;2023-11-22T14:57:53;2.58;;;1.50;;
54881;SDS011;40775;51.448;4.742;2023-11-22T15:00:23;2.63;;;1.52;;
54881;SDS011;40775;51.448;4.742;2023-11-22T15:02:51;3.97;;;1.80;;